sensor_id;sensor_type;location;lat;lon;timestamp;temperature;humidity
24097;DHT22;12275;48.550;12.132;2022-12-19T00:02:05;-3.30;99.90
24097;DHT22;12275;48.550;12.132;2022-12-19T00:04:31;-3.30;99.90
24097;DHT22;12275;48.550;12.132;2022-12-19T00:06:57;-3.20;99.90
24097;DHT22;12275;48.550;12.132;2022-12-19T00:09:24;-3.20;99.90
24097;DHT22;12275;48.550;12.132;2022-12-19T00:11:50;-3.20;99.90
24097;DHT22;12275;48.550;12.132;2022-12-19T00:14:16;-3.20;99.90
24097;DHT22;12275;48.550;12.132;2022-12-19T00:16:42;-3.20;99.90
24097;DHT22;12275;48.550;12.132;2022-12-19T00:19:08;-3.20;99.90
24097;DHT22;12275;48.550;12.132;2022-12-19T00:21:33;-3.20;99.90
24097;DHT22;12275;48.550;12.132;2022-12-19T00:24:04;-3.10;99.90
24097;DHT22;12275;48.550;12.132;2022-12-19T00:26:31;-3.10;99.90
24097;DHT22;12275;48.550;12.132;2022-12-19T00:29:02;-3.10;99.90
24097;DHT22;12275;48.550;12.132;2022-12-19T00:31:31;-3.20;99.90
24097;DHT22;12275;48.550;12.132;2022-12-19T00:33:58;-3.20;99.90
24097;DHT22;12275;48.550;12.132;2022-12-19T00:36:28;-3.20;99.90
24097;DHT22;12275;48.550;12.132;2022-12-19T00:38:55;-3.20;99.90
24097;DHT22;12275;48.550;12.132;2022-12-19T00:41:22;-3.20;99.90
24097;DHT22;12275;48.550;12.132;2022-12-19T00:43:52;-3.30;99.90
24097;DHT22;12275;48.550;12.132;2022-12-19T00:46:21;-3.20;99.90
24097;DHT22;12275;48.550;12.132;2022-12-19T00:48:48;-3.20;99.90
24097;DHT22;12275;48.550;12.132;2022-12-19T00:51:15;-3.10;99.90
24097;DHT22;12275;48.550;12.132;2022-12-19T00:53:41;-3.00;99.90
24097;DHT22;12275;48.550;12.132;2022-12-19T00:56:11;-3.00;99.90
24097;DHT22;12275;48.550;12.132;2022-12-19T00:59:02;-3.00;99.90
24097;DHT22;12275;48.550;12.132;2022-12-19T01:01:29;-3.00;99.90
24097;DHT22;12275;48.550;12.132;2022-12-19T01:03:59;-3.00;99.90
24097;DHT22;12275;48.550;12.132;2022-12-19T01:06:25;-3.00;99.90
24097;DHT22;12275;48.550;12.132;2022-12-19T01:08:52;-3.00;99.90
24097;DHT22;12275;48.550;12.132;2022-12-19T01:11:18;-3.00;99.90
24097;DHT22;12275;48.550;12.132;2022-12-19T01:14:04;-3.00;99.90
24097;DHT22;12275;48.550;12.132;2022-12-19T01:16:30;-3.00;99.90
24097;DHT22;12275;48.550;12.132;2022-12-19T01:18:56;-3.00;99.90
24097;DHT22;12275;48.550;12.132;2022-12-19T01:21:23;-3.00;99.90
24097;DHT22;12275;48.550;12.132;2022-12-19T01:23:49;-3.00;99.90
24097;DHT22;12275;48.550;12.132;2022-12-19T01:26:15;-3.00;99.90
24097;DHT22;12275;48.550;12.132;2022-12-19T01:28:52;-2.90;99.90
24097;DHT22;12275;48.550;12.132;2022-12-19T01:31:18;-3.00;99.90
24097;DHT22;12275;48.550;12.132;2022-12-19T01:33:43;-3.00;99.90
24097;DHT22;12275;48.550;12.132;2022-12-19T01:36:09;-3.00;99.90
24097;DHT22;12275;48.550;12.132;2022-12-19T01:38:35;-3.00;99.90
24097;DHT22;12275;48.550;12.132;2022-12-19T01:41:08;-3.00;99.90
24097;DHT22;12275;48.550;12.132;2022-12-19T01:46:21;-2.90;99.90
24097;DHT22;12275;48.550;12.132;2022-12-19T01:48:52;-2.90;99.90
24097;DHT22;12275;48.550;12.132;2022-12-19T01:51:20;-2.80;99.90
24097;DHT22;12275;48.550;12.132;2022-12-19T01:53:59;-2.80;99.90
24097;DHT22;12275;48.550;12.132;2022-12-19T01:56:33;-2.90;99.90
24097;DHT22;12275;48.550;12.132;2022-12-19T01:59:05;-2.90;99.90
24097;DHT22;12275;48.550;12.132;2022-12-19T02:01:33;-2.90;99.90
24097;DHT22;12275;48.550;12.132;2022-12-19T02:04:02;-2.90;99.90
24097;DHT22;12275;48.550;12.132;2022-12-19T02:06:32;-2.90;99.90
24097;DHT22;12275;48.550;12.132;2022-12-19T02:08:59;-3.00;99.90
24097;DHT22;12275;48.550;12.132;2022-12-19T02:11:25;-3.00;99.90
24097;DHT22;12275;48.550;12.132;2022-12-19T02:13:50;-2.90;99.90
24097;DHT22;12275;48.550;12.132;2022-12-19T02:16:19;-3.00;99.90
24097;DHT22;12275;48.550;12.132;2022-12-19T02:18:51;-3.00;99.90
24097;DHT22;12275;48.550;12.132;2022-12-19T02:21:21;-3.00;99.90
24097;DHT22;12275;48.550;12.132;2022-12-19T02:31:53;-2.90;99.90
24097;DHT22;12275;48.550;12.132;2022-12-19T02:36:49;-3.00;99.90
24097;DHT22;12275;48.550;12.132;2022-12-19T02:39:18;-3.00;99.90
24097;DHT22;12275;48.550;12.132;2022-12-19T02:42:00;-2.90;99.90
24097;DHT22;12275;48.550;12.132;2022-12-19T02:44:34;-2.90;99.90
24097;DHT22;12275;48.550;12.132;2022-12-19T02:47:08;-3.00;99.90
24097;DHT22;12275;48.550;12.132;2022-12-19T02:49:35;-2.90;99.90
24097;DHT22;12275;48.550;12.132;2022-12-19T02:54:46;-2.90;99.90
24097;DHT22;12275;48.550;12.132;2022-12-19T02:57:32;-2.90;99.90
24097;DHT22;12275;48.550;12.132;2022-12-19T03:00:07;-2.90;99.90
24097;DHT22;12275;48.550;12.132;2022-12-19T03:10:36;-2.80;99.90
24097;DHT22;12275;48.550;12.132;2022-12-19T03:13:17;-2.80;99.90
24097;DHT22;12275;48.550;12.132;2022-12-19T03:15:43;-2.80;99.90
24097;DHT22;12275;48.550;12.132;2022-12-19T03:18:09;-2.80;99.90
24097;DHT22;12275;48.550;12.132;2022-12-19T03:23:00;-2.80;99.90
24097;DHT22;12275;48.550;12.132;2022-12-19T03:25:26;-2.80;99.90
24097;DHT22;12275;48.550;12.132;2022-12-19T03:27:53;-2.80;99.90
24097;DHT22;12275;48.550;12.132;2022-12-19T03:30:23;-2.80;99.90
24097;DHT22;12275;48.550;12.132;2022-12-19T03:32:57;-2.80;99.90
24097;DHT22;12275;48.550;12.132;2022-12-19T03:35:25;-2.80;99.90
24097;DHT22;12275;48.550;12.132;2022-12-19T03:37:53;-2.90;99.90
24097;DHT22;12275;48.550;12.132;2022-12-19T03:40:24;-2.80;99.90
24097;DHT22;12275;48.550;12.132;2022-12-19T03:42:57;-2.90;99.90
24097;DHT22;12275;48.550;12.132;2022-12-19T03:48:32;-2.80;99.90
24097;DHT22;12275;48.550;12.132;2022-12-19T03:56:29;-2.80;99.90
24097;DHT22;12275;48.550;12.132;2022-12-19T03:59:06;-2.80;99.90
24097;DHT22;12275;48.550;12.132;2022-12-19T04:01:32;-2.80;99.90
24097;DHT22;12275;48.550;12.132;2022-12-19T04:04:00;-2.80;99.90
24097;DHT22;12275;48.550;12.132;2022-12-19T04:06:27;-2.80;99.90
24097;DHT22;12275;48.550;12.132;2022-12-19T04:08:55;-2.80;99.90
24097;DHT22;12275;48.550;12.132;2022-12-19T04:11:21;-2.80;99.90
24097;DHT22;12275;48.550;12.132;2022-12-19T04:13:54;-2.80;99.90
24097;DHT22;12275;48.550;12.132;2022-12-19T04:16:24;-2.70;99.90
24097;DHT22;12275;48.550;12.132;2022-12-19T04:18:57;-2.90;99.90
24097;DHT22;12275;48.550;12.132;2022-12-19T04:21:26;-2.90;99.90
24097;DHT22;12275;48.550;12.132;2022-12-19T04:24:06;-2.90;99.90
24097;DHT22;12275;48.550;12.132;2022-12-19T04:26:34;-2.80;99.90
24097;DHT22;12275;48.550;12.132;2022-12-19T04:29:01;-2.80;99.90
24097;DHT22;12275;48.550;12.132;2022-12-19T04:31:28;-2.80;99.90
24097;DHT22;12275;48.550;12.132;2022-12-19T04:33:53;-2.70;99.90
24097;DHT22;12275;48.550;12.132;2022-12-19T04:36:19;-2.70;99.90
24097;DHT22;12275;48.550;12.132;2022-12-19T04:38:46;-2.80;99.90
24097;DHT22;12275;48.550;12.132;2022-12-19T04:41:12;-2.80;99.90
24097;DHT22;12275;48.550;12.132;2022-12-19T04:43:39;-2.80;99.90
24097;DHT22;12275;48.550;12.132;2022-12-19T04:46:04;-2.80;99.90
24097;DHT22;12275;48.550;12.132;2022-12-19T04:48:30;-2.80;99.90
24097;DHT22;12275;48.550;12.132;2022-12-19T04:50:55;-2.80;99.90
24097;DHT22;12275;48.550;12.132;2022-12-19T04:53:21;-2.80;99.90
24097;DHT22;12275;48.550;12.132;2022-12-19T04:55:46;-2.90;99.90
24097;DHT22;12275;48.550;12.132;2022-12-19T04:58:13;-2.90;99.90
24097;DHT22;12275;48.550;12.132;2022-12-19T05:00:39;-2.80;99.90
24097;DHT22;12275;48.550;12.132;2022-12-19T05:03:04;-2.80;99.90
24097;DHT22;12275;48.550;12.132;2022-12-19T05:05:30;-2.80;99.90
24097;DHT22;12275;48.550;12.132;2022-12-19T05:07:55;-2.80;99.90
24097;DHT22;12275;48.550;12.132;2022-12-19T05:10:21;-2.80;99.90
24097;DHT22;12275;48.550;12.132;2022-12-19T05:12:47;-2.70;99.90
24097;DHT22;12275;48.550;12.132;2022-12-19T05:15:12;-2.80;99.90
24097;DHT22;12275;48.550;12.132;2022-12-19T05:17:38;-2.80;99.90
24097;DHT22;12275;48.550;12.132;2022-12-19T05:20:04;-2.80;99.90
24097;DHT22;12275;48.550;12.132;2022-12-19T05:22:29;-2.80;99.90
24097;DHT22;12275;48.550;12.132;2022-12-19T05:24:55;-2.80;99.90
24097;DHT22;12275;48.550;12.132;2022-12-19T05:27:20;-2.80;99.90
24097;DHT22;12275;48.550;12.132;2022-12-19T05:29:46;-2.80;99.90
24097;DHT22;12275;48.550;12.132;2022-12-19T05:32:11;-2.70;99.90
24097;DHT22;12275;48.550;12.132;2022-12-19T05:34:37;-2.80;99.90
24097;DHT22;12275;48.550;12.132;2022-12-19T05:37:02;-2.70;99.90
24097;DHT22;12275;48.550;12.132;2022-12-19T05:39:28;-2.70;99.90
24097;DHT22;12275;48.550;12.132;2022-12-19T05:41:54;-2.70;99.90
24097;DHT22;12275;48.550;12.132;2022-12-19T05:44:19;-2.70;99.90
24097;DHT22;12275;48.550;12.132;2022-12-19T05:46:45;-2.70;99.90
24097;DHT22;12275;48.550;12.132;2022-12-19T05:49:10;-2.70;99.90
24097;DHT22;12275;48.550;12.132;2022-12-19T05:51:36;-2.70;99.90
24097;DHT22;12275;48.550;12.132;2022-12-19T05:54:02;-2.70;99.90
24097;DHT22;12275;48.550;12.132;2022-12-19T05:56:27;-2.70;99.90
24097;DHT22;12275;48.550;12.132;2022-12-19T05:58:53;-2.80;99.90
24097;DHT22;12275;48.550;12.132;2022-12-19T06:01:19;-2.80;99.90
24097;DHT22;12275;48.550;12.132;2022-12-19T06:03:45;-2.90;99.90
24097;DHT22;12275;48.550;12.132;2022-12-19T06:06:12;-2.90;99.90
24097;DHT22;12275;48.550;12.132;2022-12-19T06:08:37;-3.00;99.90
24097;DHT22;12275;48.550;12.132;2022-12-19T06:11:04;-3.00;99.90
24097;DHT22;12275;48.550;12.132;2022-12-19T06:13:30;-3.00;99.90
24097;DHT22;12275;48.550;12.132;2022-12-19T06:16:18;-2.90;99.90
24097;DHT22;12275;48.550;12.132;2022-12-19T06:18:42;-2.80;99.90
24097;DHT22;12275;48.550;12.132;2022-12-19T06:21:12;-2.80;99.90
24097;DHT22;12275;48.550;12.132;2022-12-19T06:23:38;-2.80;99.90
24097;DHT22;12275;48.550;12.132;2022-12-19T06:26:05;-2.70;99.90
24097;DHT22;12275;48.550;12.132;2022-12-19T06:28:31;-2.70;99.90
24097;DHT22;12275;48.550;12.132;2022-12-19T06:30:57;-2.80;99.90
24097;DHT22;12275;48.550;12.132;2022-12-19T06:33:23;-2.80;99.90
24097;DHT22;12275;48.550;12.132;2022-12-19T06:35:56;-2.80;99.90
24097;DHT22;12275;48.550;12.132;2022-12-19T06:38:21;-2.70;99.90
24097;DHT22;12275;48.550;12.132;2022-12-19T06:40:47;-2.80;99.90
24097;DHT22;12275;48.550;12.132;2022-12-19T06:43:32;-2.70;99.90
24097;DHT22;12275;48.550;12.132;2022-12-19T06:45:57;-2.70;99.90
24097;DHT22;12275;48.550;12.132;2022-12-19T06:48:23;-2.70;99.90
24097;DHT22;12275;48.550;12.132;2022-12-19T06:50:48;-2.60;99.90
24097;DHT22;12275;48.550;12.132;2022-12-19T06:53:14;-2.60;99.90
24097;DHT22;12275;48.550;12.132;2022-12-19T06:55:39;-2.60;99.90
24097;DHT22;12275;48.550;12.132;2022-12-19T06:58:05;-2.60;99.90
24097;DHT22;12275;48.550;12.132;2022-12-19T07:00:33;-2.60;99.90
24097;DHT22;12275;48.550;12.132;2022-12-19T07:02:59;-2.50;99.90
24097;DHT22;12275;48.550;12.132;2022-12-19T07:05:24;-2.60;99.90
24097;DHT22;12275;48.550;12.132;2022-12-19T07:07:50;-2.70;99.90
24097;DHT22;12275;48.550;12.132;2022-12-19T07:10:16;-2.60;99.90
24097;DHT22;12275;48.550;12.132;2022-12-19T07:12:42;-2.50;99.90
24097;DHT22;12275;48.550;12.132;2022-12-19T07:15:07;-2.50;99.90
24097;DHT22;12275;48.550;12.132;2022-12-19T07:17:33;-2.50;99.90
24097;DHT22;12275;48.550;12.132;2022-12-19T07:19:58;-2.50;99.90
24097;DHT22;12275;48.550;12.132;2022-12-19T07:22:25;-2.50;99.90
24097;DHT22;12275;48.550;12.132;2022-12-19T07:24:51;-2.50;99.90
24097;DHT22;12275;48.550;12.132;2022-12-19T07:27:16;-2.50;99.90
24097;DHT22;12275;48.550;12.132;2022-12-19T07:29:42;-2.50;99.90
24097;DHT22;12275;48.550;12.132;2022-12-19T07:32:08;-2.40;99.90
24097;DHT22;12275;48.550;12.132;2022-12-19T07:34:33;-2.40;99.90
24097;DHT22;12275;48.550;12.132;2022-12-19T07:36:59;-2.40;99.90
24097;DHT22;12275;48.550;12.132;2022-12-19T07:39:24;-2.40;99.90
24097;DHT22;12275;48.550;12.132;2022-12-19T07:41:50;-2.40;99.90
24097;DHT22;12275;48.550;12.132;2022-12-19T07:44:15;-2.30;99.90
24097;DHT22;12275;48.550;12.132;2022-12-19T07:46:41;-2.30;99.90
24097;DHT22;12275;48.550;12.132;2022-12-19T07:49:07;-2.20;99.90
24097;DHT22;12275;48.550;12.132;2022-12-19T07:51:32;-2.30;99.90
24097;DHT22;12275;48.550;12.132;2022-12-19T07:53:58;-2.20;99.90
24097;DHT22;12275;48.550;12.132;2022-12-19T07:56:23;-2.20;99.90
24097;DHT22;12275;48.550;12.132;2022-12-19T07:58:49;-2.20;99.90
24097;DHT22;12275;48.550;12.132;2022-12-19T08:01:14;-2.20;99.90
24097;DHT22;12275;48.550;12.132;2022-12-19T08:03:40;-2.20;99.90
24097;DHT22;12275;48.550;12.132;2022-12-19T08:06:06;-2.20;99.90
24097;DHT22;12275;48.550;12.132;2022-12-19T08:08:32;-2.20;99.90
24097;DHT22;12275;48.550;12.132;2022-12-19T08:11:06;-2.30;99.90
24097;DHT22;12275;48.550;12.132;2022-12-19T08:13:32;-2.30;99.90
24097;DHT22;12275;48.550;12.132;2022-12-19T08:16:01;-2.20;99.90
24097;DHT22;12275;48.550;12.132;2022-12-19T08:18:26;-2.20;99.90
24097;DHT22;12275;48.550;12.132;2022-12-19T08:20:52;-2.20;99.90
24097;DHT22;12275;48.550;12.132;2022-12-19T08:23:18;-2.20;99.90
24097;DHT22;12275;48.550;12.132;2022-12-19T08:25:43;-2.20;99.90
24097;DHT22;12275;48.550;12.132;2022-12-19T08:28:09;-2.20;99.90
24097;DHT22;12275;48.550;12.132;2022-12-19T08:30:36;-2.10;99.90
24097;DHT22;12275;48.550;12.132;2022-12-19T08:33:02;-2.10;99.90
24097;DHT22;12275;48.550;12.132;2022-12-19T08:35:27;-2.10;99.90
24097;DHT22;12275;48.550;12.132;2022-12-19T08:37:54;-2.20;99.90
24097;DHT22;12275;48.550;12.132;2022-12-19T08:40:19;-2.10;99.90
24097;DHT22;12275;48.550;12.132;2022-12-19T08:42:46;-2.10;99.90
24097;DHT22;12275;48.550;12.132;2022-12-19T08:45:11;-2.00;99.90
24097;DHT22;12275;48.550;12.132;2022-12-19T08:47:37;-2.00;99.90
24097;DHT22;12275;48.550;12.132;2022-12-19T08:50:02;-2.00;99.90
24097;DHT22;12275;48.550;12.132;2022-12-19T08:52:28;-1.90;99.90
24097;DHT22;12275;48.550;12.132;2022-12-19T08:54:54;-1.90;99.90
24097;DHT22;12275;48.550;12.132;2022-12-19T08:57:19;-1.80;99.90
24097;DHT22;12275;48.550;12.132;2022-12-19T08:59:45;-1.80;99.90
24097;DHT22;12275;48.550;12.132;2022-12-19T09:02:10;-1.80;99.90
24097;DHT22;12275;48.550;12.132;2022-12-19T09:04:36;-1.80;99.90
24097;DHT22;12275;48.550;12.132;2022-12-19T09:07:01;-1.70;99.90
24097;DHT22;12275;48.550;12.132;2022-12-19T09:09:27;-1.70;99.90
24097;DHT22;12275;48.550;12.132;2022-12-19T09:11:53;-1.70;99.90
24097;DHT22;12275;48.550;12.132;2022-12-19T09:14:19;-1.70;99.90
24097;DHT22;12275;48.550;12.132;2022-12-19T09:16:44;-1.60;99.90
24097;DHT22;12275;48.550;12.132;2022-12-19T09:19:10;-1.60;99.90
24097;DHT22;12275;48.550;12.132;2022-12-19T09:21:39;-1.60;99.90
24097;DHT22;12275;48.550;12.132;2022-12-19T09:24:05;-1.60;99.90
24097;DHT22;12275;48.550;12.132;2022-12-19T09:26:30;-1.60;99.90
24097;DHT22;12275;48.550;12.132;2022-12-19T09:28:56;-1.60;99.90
24097;DHT22;12275;48.550;12.132;2022-12-19T09:31:23;-1.50;99.90
24097;DHT22;12275;48.550;12.132;2022-12-19T09:33:49;-1.60;99.90
24097;DHT22;12275;48.550;12.132;2022-12-19T09:36:16;-1.60;99.90
24097;DHT22;12275;48.550;12.132;2022-12-19T09:38:41;-1.60;99.90
24097;DHT22;12275;48.550;12.132;2022-12-19T09:41:13;-1.50;99.90
24097;DHT22;12275;48.550;12.132;2022-12-19T09:48:40;-1.40;99.90
24097;DHT22;12275;48.550;12.132;2022-12-19T09:51:12;-1.40;99.90
24097;DHT22;12275;48.550;12.132;2022-12-19T09:56:04;-1.40;99.90
24097;DHT22;12275;48.550;12.132;2022-12-19T09:58:36;-1.40;99.90
24097;DHT22;12275;48.550;12.132;2022-12-19T10:01:04;-1.30;99.90
24097;DHT22;12275;48.550;12.132;2022-12-19T10:03:39;-1.30;99.90
24097;DHT22;12275;48.550;12.132;2022-12-19T10:06:21;-1.20;99.90
24097;DHT22;12275;48.550;12.132;2022-12-19T10:08:48;-1.20;99.90
24097;DHT22;12275;48.550;12.132;2022-12-19T10:16:28;-1.20;99.90
24097;DHT22;12275;48.550;12.132;2022-12-19T10:18:59;-1.10;99.90
24097;DHT22;12275;48.550;12.132;2022-12-19T10:26:26;-0.90;99.90
24097;DHT22;12275;48.550;12.132;2022-12-19T10:31:32;-0.80;99.90
24097;DHT22;12275;48.550;12.132;2022-12-19T10:34:00;-0.90;99.90
24097;DHT22;12275;48.550;12.132;2022-12-19T10:36:26;-0.90;99.90
24097;DHT22;12275;48.550;12.132;2022-12-19T10:38:59;-0.90;99.90
24097;DHT22;12275;48.550;12.132;2022-12-19T10:41:27;-0.80;99.90
24097;DHT22;12275;48.550;12.132;2022-12-19T10:44:01;-0.80;99.90
24097;DHT22;12275;48.550;12.132;2022-12-19T10:46:43;-0.80;99.90
24097;DHT22;12275;48.550;12.132;2022-12-19T10:49:15;-0.80;99.90
24097;DHT22;12275;48.550;12.132;2022-12-19T10:51:42;-0.70;99.90
24097;DHT22;12275;48.550;12.132;2022-12-19T10:54:16;-0.70;99.90
24097;DHT22;12275;48.550;12.132;2022-12-19T10:56:42;-0.70;99.90
24097;DHT22;12275;48.550;12.132;2022-12-19T10:59:14;-0.60;99.90
24097;DHT22;12275;48.550;12.132;2022-12-19T11:01:40;-0.60;99.90
24097;DHT22;12275;48.550;12.132;2022-12-19T11:09:16;-0.60;99.90
24097;DHT22;12275;48.550;12.132;2022-12-19T11:11:44;-0.60;99.90
24097;DHT22;12275;48.550;12.132;2022-12-19T11:14:20;-0.60;99.90
24097;DHT22;12275;48.550;12.132;2022-12-19T11:16:46;-0.60;99.90
24097;DHT22;12275;48.550;12.132;2022-12-19T11:19:25;-0.50;99.90
24097;DHT22;12275;48.550;12.132;2022-12-19T11:21:51;-0.50;99.90
24097;DHT22;12275;48.550;12.132;2022-12-19T11:24:24;-0.60;99.90
24097;DHT22;12275;48.550;12.132;2022-12-19T11:26:50;-0.60;99.90
24097;DHT22;12275;48.550;12.132;2022-12-19T11:29:24;-0.60;99.90
24097;DHT22;12275;48.550;12.132;2022-12-19T11:31:58;-0.50;99.90
24097;DHT22;12275;48.550;12.132;2022-12-19T11:34:26;-0.50;99.90
24097;DHT22;12275;48.550;12.132;2022-12-19T11:39:21;-0.40;99.90
24097;DHT22;12275;48.550;12.132;2022-12-19T11:42:00;-0.40;99.90
24097;DHT22;12275;48.550;12.132;2022-12-19T11:44:28;-0.40;99.90
24097;DHT22;12275;48.550;12.132;2022-12-19T11:49:29;-0.30;99.90
24097;DHT22;12275;48.550;12.132;2022-12-19T11:51:58;-0.30;99.90
24097;DHT22;12275;48.550;12.132;2022-12-19T11:54:27;-0.30;99.90
24097;DHT22;12275;48.550;12.132;2022-12-19T11:56:55;-0.30;99.90
24097;DHT22;12275;48.550;12.132;2022-12-19T11:59:21;-0.20;99.90
24097;DHT22;12275;48.550;12.132;2022-12-19T12:06:59;0.00;99.90
24097;DHT22;12275;48.550;12.132;2022-12-19T12:09:35;0.00;99.90
24097;DHT22;12275;48.550;12.132;2022-12-19T12:23:11;0.00;99.90
24097;DHT22;12275;48.550;12.132;2022-12-19T12:25:12;-0.10;99.90
24097;DHT22;12275;48.550;12.132;2022-12-19T12:30:12;0.00;99.90
24097;DHT22;12275;48.550;12.132;2022-12-19T12:32:58;0.00;99.90
24097;DHT22;12275;48.550;12.132;2022-12-19T12:40:25;0.00;99.90
24097;DHT22;12275;48.550;12.132;2022-12-19T12:42:59;0.10;99.90
24097;DHT22;12275;48.550;12.132;2022-12-19T12:45:35;0.10;99.90
24097;DHT22;12275;48.550;12.132;2022-12-19T12:48:02;0.00;99.90
24097;DHT22;12275;48.550;12.132;2022-12-19T12:50:28;0.10;99.90
24097;DHT22;12275;48.550;12.132;2022-12-19T12:52:56;0.10;99.90
24097;DHT22;12275;48.550;12.132;2022-12-19T12:55:27;0.10;99.90
24097;DHT22;12275;48.550;12.132;2022-12-19T12:57:54;0.20;99.90
24097;DHT22;12275;48.550;12.132;2022-12-19T13:02:53;0.20;99.90
24097;DHT22;12275;48.550;12.132;2022-12-19T13:06:23;0.20;99.90
24097;DHT22;12275;48.550;12.132;2022-12-19T13:08:34;0.20;99.90
24097;DHT22;12275;48.550;12.132;2022-12-19T13:11:05;0.10;99.90
24097;DHT22;12275;48.550;12.132;2022-12-19T13:13:47;0.10;99.90
24097;DHT22;12275;48.550;12.132;2022-12-19T13:19:02;0.20;99.90
24097;DHT22;12275;48.550;12.132;2022-12-19T13:21:47;0.10;99.90
24097;DHT22;12275;48.550;12.132;2022-12-19T13:24:18;0.10;99.90
24097;DHT22;12275;48.550;12.132;2022-12-19T13:26:46;0.10;99.90
24097;DHT22;12275;48.550;12.132;2022-12-19T13:30:14;0.10;99.90
24097;DHT22;12275;48.550;12.132;2022-12-19T13:32:12;0.00;99.90
24097;DHT22;12275;48.550;12.132;2022-12-19T13:34:38;0.00;99.90
24097;DHT22;12275;48.550;12.132;2022-12-19T13:39:33;0.10;99.90
24097;DHT22;12275;48.550;12.132;2022-12-19T13:42:10;0.10;99.90
24097;DHT22;12275;48.550;12.132;2022-12-19T13:44:55;0.00;99.90
24097;DHT22;12275;48.550;12.132;2022-12-19T13:47:21;0.10;99.90
24097;DHT22;12275;48.550;12.132;2022-12-19T13:49:48;0.10;99.90
24097;DHT22;12275;48.550;12.132;2022-12-19T13:52:15;0.00;99.90
24097;DHT22;12275;48.550;12.132;2022-12-19T13:54:48;0.00;99.90
24097;DHT22;12275;48.550;12.132;2022-12-19T13:57:21;0.00;99.90
24097;DHT22;12275;48.550;12.132;2022-12-19T13:59:47;0.00;99.90
24097;DHT22;12275;48.550;12.132;2022-12-19T14:02:15;0.00;99.90
24097;DHT22;12275;48.550;12.132;2022-12-19T14:04:42;0.00;99.90
24097;DHT22;12275;48.550;12.132;2022-12-19T14:07:24;0.00;99.90
24097;DHT22;12275;48.550;12.132;2022-12-19T14:09:51;0.00;99.90
24097;DHT22;12275;48.550;12.132;2022-12-19T14:12:31;0.00;99.90
24097;DHT22;12275;48.550;12.132;2022-12-19T14:15:22;0.00;99.90
24097;DHT22;12275;48.550;12.132;2022-12-19T14:17:48;0.00;99.90
24097;DHT22;12275;48.550;12.132;2022-12-19T14:20:16;0.00;99.90
24097;DHT22;12275;48.550;12.132;2022-12-19T14:22:42;0.00;99.90
24097;DHT22;12275;48.550;12.132;2022-12-19T14:25:08;0.00;99.90
24097;DHT22;12275;48.550;12.132;2022-12-19T14:27:35;-0.10;99.90
24097;DHT22;12275;48.550;12.132;2022-12-19T14:30:03;-0.10;99.90
24097;DHT22;12275;48.550;12.132;2022-12-19T14:32:30;-0.20;99.90
24097;DHT22;12275;48.550;12.132;2022-12-19T14:34:55;-0.20;99.90
24097;DHT22;12275;48.550;12.132;2022-12-19T14:37:27;-0.20;99.90
24097;DHT22;12275;48.550;12.132;2022-12-19T14:39:56;-0.20;99.90
24097;DHT22;12275;48.550;12.132;2022-12-19T14:42:22;-0.20;99.90
24097;DHT22;12275;48.550;12.132;2022-12-19T14:47:51;-0.20;99.90
24097;DHT22;12275;48.550;12.132;2022-12-19T14:50:25;-0.20;99.90
24097;DHT22;12275;48.550;12.132;2022-12-19T14:53:05;-0.30;99.90
24097;DHT22;12275;48.550;12.132;2022-12-19T14:55:32;-0.30;99.90
24097;DHT22;12275;48.550;12.132;2022-12-19T14:57:58;-0.30;99.90
24097;DHT22;12275;48.550;12.132;2022-12-19T15:00:31;-0.40;99.90
24097;DHT22;12275;48.550;12.132;2022-12-19T15:03:05;-0.40;99.90
24097;DHT22;12275;48.550;12.132;2022-12-19T15:05:31;-0.40;99.90
24097;DHT22;12275;48.550;12.132;2022-12-19T15:07:57;-0.30;99.90
24097;DHT22;12275;48.550;12.132;2022-12-19T15:10:24;-0.30;99.90
24097;DHT22;12275;48.550;12.132;2022-12-19T15:15:49;-0.40;99.90
24097;DHT22;12275;48.550;12.132;2022-12-19T15:20:47;-0.40;99.90
24097;DHT22;12275;48.550;12.132;2022-12-19T15:23:13;-0.40;99.90
24097;DHT22;12275;48.550;12.132;2022-12-19T15:25:38;-0.30;99.90
24097;DHT22;12275;48.550;12.132;2022-12-19T15:28:09;-0.30;99.90
24097;DHT22;12275;48.550;12.132;2022-12-19T15:30:36;-0.40;99.90
24097;DHT22;12275;48.550;12.132;2022-12-19T15:33:04;-0.40;99.90
24097;DHT22;12275;48.550;12.132;2022-12-19T15:35:32;-0.40;99.90
24097;DHT22;12275;48.550;12.132;2022-12-19T15:37:58;-0.50;99.90
24097;DHT22;12275;48.550;12.132;2022-12-19T15:40:23;-0.50;99.90
24097;DHT22;12275;48.550;12.132;2022-12-19T15:42:49;-0.50;99.90
24097;DHT22;12275;48.550;12.132;2022-12-19T15:45:17;-0.50;99.90
24097;DHT22;12275;48.550;12.132;2022-12-19T15:47:46;-0.50;99.90
24097;DHT22;12275;48.550;12.132;2022-12-19T15:52:43;-0.60;99.90
24097;DHT22;12275;48.550;12.132;2022-12-19T15:55:12;-0.60;99.90
24097;DHT22;12275;48.550;12.132;2022-12-19T15:57:39;-0.70;99.90
24097;DHT22;12275;48.550;12.132;2022-12-19T16:00:15;-0.70;99.90
24097;DHT22;12275;48.550;12.132;2022-12-19T16:02:42;-0.70;99.90
24097;DHT22;12275;48.550;12.132;2022-12-19T16:05:08;-0.70;99.90
24097;DHT22;12275;48.550;12.132;2022-12-19T16:07:34;-0.70;99.90
24097;DHT22;12275;48.550;12.132;2022-12-19T16:09:59;-0.60;99.90
24097;DHT22;12275;48.550;12.132;2022-12-19T16:12:26;-0.70;99.90
24097;DHT22;12275;48.550;12.132;2022-12-19T16:14:57;-0.70;99.90
24097;DHT22;12275;48.550;12.132;2022-12-19T16:17:23;-0.70;99.90
24097;DHT22;12275;48.550;12.132;2022-12-19T16:19:49;-0.70;99.90
24097;DHT22;12275;48.550;12.132;2022-12-19T16:22:25;-0.70;99.90
24097;DHT22;12275;48.550;12.132;2022-12-19T16:24:51;-0.70;99.90
24097;DHT22;12275;48.550;12.132;2022-12-19T16:27:21;-0.70;99.90
24097;DHT22;12275;48.550;12.132;2022-12-19T16:29:47;-0.60;99.90
24097;DHT22;12275;48.550;12.132;2022-12-19T16:32:16;-0.70;99.90
24097;DHT22;12275;48.550;12.132;2022-12-19T16:34:42;-0.70;99.90
24097;DHT22;12275;48.550;12.132;2022-12-19T16:37:09;-0.70;99.90
24097;DHT22;12275;48.550;12.132;2022-12-19T16:39:35;-0.70;99.90
24097;DHT22;12275;48.550;12.132;2022-12-19T16:42:13;-0.70;99.90
24097;DHT22;12275;48.550;12.132;2022-12-19T16:44:40;-0.60;99.90
24097;DHT22;12275;48.550;12.132;2022-12-19T16:47:14;-0.60;99.90
24097;DHT22;12275;48.550;12.132;2022-12-19T16:49:40;-0.60;99.90
24097;DHT22;12275;48.550;12.132;2022-12-19T16:52:06;-0.50;99.90
24097;DHT22;12275;48.550;12.132;2022-12-19T16:54:32;-0.40;99.90
24097;DHT22;12275;48.550;12.132;2022-12-19T16:56:58;-0.40;99.90
24097;DHT22;12275;48.550;12.132;2022-12-19T17:01:50;-0.50;99.90
24097;DHT22;12275;48.550;12.132;2022-12-19T17:04:19;-0.40;99.90
24097;DHT22;12275;48.550;12.132;2022-12-19T17:06:46;-0.40;99.90
24097;DHT22;12275;48.550;12.132;2022-12-19T17:09:16;-0.30;99.90
24097;DHT22;12275;48.550;12.132;2022-12-19T17:11:43;-0.50;99.90
24097;DHT22;12275;48.550;12.132;2022-12-19T17:14:22;-0.50;99.90
24097;DHT22;12275;48.550;12.132;2022-12-19T17:16:51;-0.50;99.90